createdAt,value
2022-08-11T00:02:35.225Z,18.00
2022-08-11T00:05:07.464Z,18.00
2022-08-11T00:07:37.316Z,18.00
2022-08-11T00:10:11.953Z,18.00
2022-08-11T00:12:40.759Z,17.90
2022-08-11T00:15:10.486Z,17.90
2022-08-11T00:17:39.302Z,17.90
2022-08-11T00:20:12.027Z,17.90
2022-08-11T00:22:46.335Z,17.90
2022-08-11T00:25:17.568Z,17.90
2022-08-11T00:27:47.046Z,17.90
2022-08-11T00:30:16.336Z,17.80
2022-08-11T00:32:46.854Z,17.90
2022-08-11T00:35:55.702Z,17.80
2022-08-11T00:38:08.871Z,17.80
2022-08-11T00:40:44.027Z,17.70
2022-08-11T00:43:20.526Z,17.70
2022-08-11T00:46:06.217Z,17.60
2022-08-11T00:48:41.311Z,17.60
2022-08-11T00:51:17.240Z,17.60
2022-08-11T00:53:54.187Z,17.60
2022-08-11T00:56:46.041Z,17.60
2022-08-11T00:59:35.815Z,17.60
2022-08-11T01:02:16.717Z,17.60
2022-08-11T01:05:12.453Z,17.40
2022-08-11T01:08:21.039Z,17.30
2022-08-11T01:11:29.416Z,17.40
2022-08-11T01:14:34.128Z,17.40
2022-08-11T01:17:57.149Z,17.40
2022-08-11T01:20:59.726Z,17.20
2022-08-11T01:24:01.934Z,17.20
2022-08-11T01:27:01.334Z,17.20
2022-08-11T01:30:04.794Z,17.20
2022-08-11T01:33:14.467Z,17.20
2022-08-11T01:36:23.142Z,17.20
2022-08-11T01:39:17.861Z,17.10
2022-08-11T01:42:23.304Z,17.00
2022-08-11T01:45:24.054Z,16.70
2022-08-11T01:48:04.157Z,16.70
2022-08-11T01:50:41.736Z,16.30
2022-08-11T01:53:19.880Z,16.20
2022-08-11T01:55:57.400Z,16.30
2022-08-11T01:58:43.271Z,16.40
2022-08-11T02:01:25.420Z,16.50
2022-08-11T02:03:58.436Z,16.60
2022-08-11T02:06:52.166Z,16.60
2022-08-11T02:09:49.706Z,16.60
2022-08-11T02:12:42.179Z,16.50
2022-08-11T02:15:28.303Z,16.40
2022-08-11T02:18:06.063Z,16.40
2022-08-11T02:20:56.480Z,16.40
2022-08-11T02:24:06.735Z,16.40
2022-08-11T02:26:37.693Z,16.40
2022-08-11T02:29:13.724Z,16.30
2022-08-11T02:32:23.955Z,16.30
2022-08-11T02:35:02.700Z,16.40
2022-08-11T02:37:45.125Z,16.30
2022-08-11T02:40:22.485Z,16.10
2022-08-11T02:42:59.107Z,16.00
2022-08-11T02:45:41.298Z,16.00
2022-08-11T02:48:36.235Z,16.10
2022-08-11T02:51:13.630Z,16.30
2022-08-11T02:53:56.165Z,16.30
2022-08-11T02:56:38.913Z,16.30
2022-08-11T02:59:36.583Z,16.20
2022-08-11T03:02:15.355Z,16.20
2022-08-11T03:04:53.555Z,16.20
2022-08-11T03:07:28.493Z,16.30
2022-08-11T03:10:05.236Z,16.40
2022-08-11T03:13:04.098Z,16.30
2022-08-11T03:16:01.849Z,16.20
2022-08-11T03:18:34.420Z,16.40
2022-08-11T03:21:08.877Z,16.70
2022-08-11T03:23:43.040Z,17.00
2022-08-11T03:26:16.967Z,17.30
2022-08-11T03:28:51.467Z,17.60
2022-08-11T03:31:27.588Z,17.80
2022-08-11T03:34:07.270Z,18.00
2022-08-11T03:37:15.971Z,18.20
2022-08-11T03:39:59.087Z,18.30
2022-08-11T03:42:31.575Z,18.40
2022-08-11T03:45:08.787Z,18.60
2022-08-11T03:47:58.953Z,18.70
2022-08-11T03:50:41.050Z,18.80
2022-08-11T03:53:17.816Z,18.80
2022-08-11T03:56:14.350Z,18.90
2022-08-11T03:59:17.614Z,19.00
2022-08-11T04:02:06.332Z,19.10
2022-08-11T04:05:21.900Z,19.10
2022-08-11T04:08:17.371Z,19.10
2022-08-11T04:11:22.481Z,19.20
2022-08-11T04:14:31.099Z,19.20
2022-08-11T04:17:19.634Z,19.30
2022-08-11T04:20:23.860Z,19.30
2022-08-11T04:23:08.868Z,19.30
2022-08-11T04:26:18.507Z,19.30
2022-08-11T04:29:09.385Z,19.30
2022-08-11T04:31:44.361Z,19.40
2022-08-11T04:34:38.069Z,19.40
2022-08-11T04:38:07.541Z,19.40
2022-08-11T04:40:56.275Z,19.40
2022-08-11T04:44:13.347Z,19.50
2022-08-11T04:47:07.211Z,19.50
2022-08-11T04:50:17.307Z,19.50
2022-08-11T04:53:27.929Z,19.60
2022-08-11T04:56:28.421Z,19.60
2022-08-11T04:59:34.156Z,19.60
2022-08-11T05:02:42.625Z,19.60
2022-08-11T05:05:32.663Z,19.60
2022-08-11T05:08:52.401Z,19.70
2022-08-11T05:11:37.208Z,19.40
2022-08-11T05:14:46.706Z,19.10
2022-08-11T05:17:41.775Z,18.80
2022-08-11T05:20:31.187Z,18.50
2022-08-11T05:23:21.629Z,18.10
2022-08-11T05:26:09.968Z,17.90
2022-08-11T05:29:21.758Z,17.70
2022-08-11T05:32:14.524Z,17.50
2022-08-11T05:34:52.396Z,17.40
2022-08-11T05:37:27.281Z,17.30
2022-08-11T05:40:19.463Z,17.30
2022-08-11T05:43:09.280Z,17.30
2022-08-11T05:46:02.929Z,17.40
2022-08-11T05:48:52.732Z,17.70
2022-08-11T05:51:39.083Z,18.10
2022-08-11T05:54:41.604Z,18.50
2022-08-11T05:57:49.646Z,19.00
2022-08-11T06:00:05.588Z,19.50
2022-08-11T06:02:41.984Z,19.90
2022-08-11T06:05:10.959Z,20.20
2022-08-11T06:07:47.316Z,20.50
2022-08-11T06:10:28.827Z,20.70
2022-08-11T06:13:01.094Z,21.00
2022-08-11T06:15:31.134Z,21.30
2022-08-11T06:18:02.937Z,21.60
2022-08-11T06:20:37.475Z,21.90
2022-08-11T06:23:08.693Z,22.30
2022-08-11T06:25:37.795Z,22.50
2022-08-11T06:28:07.966Z,22.80
2022-08-11T06:30:40.788Z,23.00
2022-08-11T06:33:14.478Z,23.20
2022-08-11T06:36:04.614Z,23.60
2022-08-11T06:38:53.887Z,23.80
2022-08-11T06:41:32.056Z,24.00
2022-08-11T06:44:17.456Z,24.10
2022-08-11T06:46:48.003Z,24.30
2022-08-11T06:49:37.291Z,24.50
2022-08-11T06:52:07.689Z,24.70
2022-08-11T06:54:57.231Z,24.80
2022-08-11T06:57:43.503Z,24.90
2022-08-11T07:00:33.298Z,25.00
2022-08-11T07:03:04.671Z,25.20
2022-08-11T07:05:44.732Z,25.30
2022-08-11T07:09:05.906Z,25.30
2022-08-11T07:12:26.967Z,25.40
2022-08-11T07:15:14.517Z,25.50
2022-08-11T07:17:49.441Z,25.80
2022-08-11T07:20:36.707Z,26.00
2022-08-11T07:23:27.704Z,26.10
2022-08-11T07:26:15.688Z,26.10
2022-08-11T07:28:56.615Z,26.20
2022-08-11T07:31:31.612Z,26.10
2022-08-11T07:34:17.898Z,25.70
2022-08-11T07:36:52.182Z,25.60
2022-08-11T07:39:23.349Z,25.50
2022-08-11T07:41:53.551Z,25.60
2022-08-11T07:44:29.430Z,25.70
2022-08-11T07:47:18.921Z,25.80
2022-08-11T07:50:07.769Z,25.90
2022-08-11T07:52:42.295Z,26.00
2022-08-11T07:55:16.209Z,26.20
2022-08-11T07:58:16.352Z,26.30
2022-08-11T08:01:10.218Z,26.20
2022-08-11T08:03:58.335Z,26.30
2022-08-11T08:06:46.050Z,26.40
2022-08-11T08:09:32.899Z,26.30
2022-08-11T08:12:22.492Z,26.30
2022-08-11T08:15:09.558Z,26.20
2022-08-11T08:18:08.371Z,26.20
2022-08-11T08:20:40.912Z,26.00
2022-08-11T08:23:11.096Z,25.90
2022-08-11T08:25:41.696Z,25.80
2022-08-11T08:28:16.318Z,25.70
2022-08-11T08:30:51.662Z,25.70
2022-08-11T08:33:22.729Z,25.60
2022-08-11T08:36:11.647Z,25.60
2022-08-11T08:38:47.729Z,25.50
2022-08-11T08:41:19.195Z,25.40
2022-08-11T08:43:52.221Z,25.40
2022-08-11T08:46:23.570Z,25.40
2022-08-11T08:48:53.270Z,25.30
2022-08-11T08:52:01.091Z,25.20
2022-08-11T08:54:29.065Z,25.10
2022-08-11T08:56:58.134Z,25.10
2022-08-11T08:59:47.762Z,25.10
2022-08-11T09:02:18.427Z,25.10
2022-08-11T09:04:47.931Z,25.10
2022-08-11T09:07:18.884Z,25.10
2022-08-11T09:09:49.825Z,25.10
2022-08-11T09:12:35.719Z,25.00
2022-08-11T09:15:11.727Z,25.10
2022-08-11T09:17:45.010Z,25.10
2022-08-11T09:20:15.267Z,25.10
2022-08-11T09:24:02.110Z,25.10
2022-08-11T09:26:10.290Z,25.10
2022-08-11T09:28:38.947Z,25.10
2022-08-11T09:31:10.878Z,25.10
2022-08-11T09:33:43.101Z,25.10
2022-08-11T09:36:30.728Z,25.30
2022-08-11T09:39:17.637Z,25.30
2022-08-11T09:42:00.879Z,25.30
2022-08-11T09:44:51.944Z,25.30
2022-08-11T09:47:24.376Z,25.20
2022-08-11T09:49:59.844Z,25.20
2022-08-11T09:52:30.949Z,25.30
2022-08-11T09:55:01.683Z,25.20
2022-08-11T09:57:48.343Z,25.20
2022-08-11T10:00:17.885Z,25.30
2022-08-11T10:02:49.649Z,25.50
2022-08-11T10:05:37.988Z,25.40
2022-08-11T10:08:07.375Z,25.40
2022-08-11T10:10:37.968Z,25.50
2022-08-11T10:14:31.759Z,25.50
2022-08-11T10:16:15.257Z,25.50
2022-08-11T10:18:52.625Z,25.50
2022-08-11T10:21:29.183Z,25.60
2022-08-11T10:24:17.463Z,25.70
2022-08-11T10:26:54.512Z,25.60
2022-08-11T10:29:44.532Z,25.50
2022-08-11T10:32:57.276Z,25.60
2022-08-11T10:35:30.862Z,25.70
2022-08-11T10:38:08.051Z,25.80
2022-08-11T10:40:40.896Z,25.80
2022-08-11T10:43:14.043Z,25.80
2022-08-11T10:46:10.426Z,25.80
2022-08-11T10:48:40.056Z,25.70
2022-08-11T10:51:50.092Z,25.70
2022-08-11T10:54:24.311Z,25.70
2022-08-11T10:57:11.783Z,25.70
2022-08-11T10:59:40.892Z,25.80
2022-08-11T11:02:09.847Z,25.90
2022-08-11T11:04:50.386Z,26.00
2022-08-11T11:07:24.259Z,26.00
2022-08-11T11:09:56.367Z,26.00
2022-08-11T11:12:43.994Z,26.00
2022-08-11T11:15:31.366Z,26.00
2022-08-11T11:18:06.938Z,26.00
2022-08-11T11:20:45.014Z,26.10
2022-08-11T11:23:20.423Z,26.10
2022-08-11T11:26:27.717Z,26.10
2022-08-11T11:29:20.581Z,26.20
2022-08-11T11:32:18.847Z,26.10
2022-08-11T11:35:05.791Z,26.20
2022-08-11T11:37:35.697Z,26.20
2022-08-11T11:40:11.515Z,26.20
2022-08-11T11:42:40.994Z,26.30
2022-08-11T11:45:23.946Z,26.20
2022-08-11T11:47:55.155Z,26.20
2022-08-11T11:50:25.180Z,26.20
2022-08-11T11:53:00.871Z,26.20
2022-08-11T11:55:31.608Z,26.20
2022-08-11T11:58:20.376Z,26.20
2022-08-11T12:01:08.775Z,26.20
2022-08-11T12:03:38.023Z,26.40
2022-08-11T12:06:08.959Z,26.50
2022-08-11T12:08:38.462Z,26.50
2022-08-11T12:11:28.543Z,26.40
2022-08-11T12:13:58.842Z,26.50
2022-08-11T12:16:34.444Z,26.40
2022-08-11T12:19:06.842Z,26.40
2022-08-11T12:21:37.011Z,26.40
2022-08-11T12:24:28.458Z,26.50
2022-08-11T12:27:18.342Z,26.40
2022-08-11T12:29:54.549Z,26.40
2022-08-11T12:32:27.504Z,26.40
2022-08-11T12:34:58.059Z,26.50
2022-08-11T12:37:31.453Z,26.50
2022-08-11T12:40:43.206Z,26.60
2022-08-11T12:43:38.325Z,26.60
2022-08-11T12:46:10.534Z,26.60
2022-08-11T12:49:02.942Z,26.70
2022-08-11T12:52:11.726Z,26.70
2022-08-11T12:54:51.809Z,26.80
2022-08-11T12:57:43.582Z,26.80
2022-08-11T13:00:31.789Z,26.80
2022-08-11T13:03:18.411Z,26.80
2022-08-11T13:05:49.739Z,26.80
2022-08-11T13:08:18.730Z,26.80
2022-08-11T13:11:05.011Z,26.80
2022-08-11T13:13:55.408Z,26.80
2022-08-11T13:16:25.071Z,26.80
2022-08-11T13:18:54.019Z,26.80
2022-08-11T13:21:24.103Z,26.80
2022-08-11T13:24:01.143Z,26.80
2022-08-11T13:26:46.772Z,26.80
2022-08-11T13:29:20.183Z,26.80
2022-08-11T13:31:50.519Z,26.80
2022-08-11T13:34:20.387Z,26.80
2022-08-11T13:36:52.202Z,26.80
2022-08-11T13:39:24.257Z,26.80
2022-08-11T13:41:53.513Z,26.90
2022-08-11T13:44:25.757Z,26.90
2022-08-11T13:46:58.753Z,26.90
2022-08-11T13:49:28.773Z,27.00
2022-08-11T13:51:57.790Z,27.00
2022-08-11T13:54:28.521Z,27.00
2022-08-11T13:57:01.090Z,27.00
2022-08-11T13:59:31.097Z,27.00
2022-08-11T14:02:28.405Z,27.00
2022-08-11T14:04:56.515Z,26.90
2022-08-11T14:07:26.797Z,26.90
2022-08-11T14:09:58.981Z,26.90
2022-08-11T14:12:46.850Z,26.80
2022-08-11T14:15:20.008Z,26.80
2022-08-11T14:17:54.144Z,26.80
2022-08-11T14:20:39.288Z,26.80
2022-08-11T14:23:10.981Z,26.80
2022-08-11T14:26:02.603Z,26.70
2022-08-11T14:28:37.871Z,26.70
2022-08-11T14:31:09.520Z,26.80
2022-08-11T14:34:00.789Z,26.90
2022-08-11T14:36:29.780Z,26.90
2022-08-11T14:38:58.427Z,27.00
2022-08-11T14:42:07.377Z,26.90
2022-08-11T14:44:53.490Z,27.00
2022-08-11T14:47:25.674Z,27.00
2022-08-11T14:50:09.478Z,27.00
2022-08-11T14:52:39.994Z,27.10
2022-08-11T14:55:26.844Z,27.10
2022-08-11T14:57:57.490Z,27.10
2022-08-11T15:00:27.003Z,27.00
2022-08-11T15:03:10.698Z,27.00
2022-08-11T15:05:55.939Z,27.00
2022-08-11T15:09:00.107Z,27.00
2022-08-11T15:11:49.103Z,27.00
2022-08-11T15:14:38.772Z,27.00
2022-08-11T15:17:09.856Z,27.00
2022-08-11T15:20:02.176Z,26.90
2022-08-11T15:22:50.279Z,26.90
2022-08-11T15:25:19.944Z,26.90
2022-08-11T15:28:08.231Z,26.80
2022-08-11T15:30:57.562Z,26.70
2022-08-11T15:33:49.104Z,26.70
2022-08-11T15:36:35.015Z,26.60
2022-08-11T15:39:19.639Z,26.60
2022-08-11T15:42:11.759Z,26.50
2022-08-11T15:45:03.543Z,26.40
2022-08-11T15:47:41.341Z,26.30
2022-08-11T15:50:15.277Z,26.20
2022-08-11T15:52:49.607Z,26.20
2022-08-11T15:55:20.183Z,26.20
2022-08-11T15:58:08.774Z,26.20
2022-08-11T16:01:03.909Z,26.20
2022-08-11T16:04:07.278Z,26.10
2022-08-11T16:06:42.840Z,26.00
2022-08-11T16:09:19.166Z,26.00
2022-08-11T16:11:50.438Z,26.00
2022-08-11T16:14:38.145Z,25.90
2022-08-11T16:17:08.691Z,25.90
2022-08-11T16:19:38.026Z,25.90
2022-08-11T16:22:09.666Z,25.90
2022-08-11T16:27:04.429Z,25.90
2022-08-11T16:27:37.738Z,26.00
2022-08-11T16:30:07.951Z,25.90
2022-08-11T16:32:39.819Z,25.90
2022-08-11T16:35:28.418Z,25.80
2022-08-11T16:38:15.441Z,25.80
2022-08-11T16:40:46.601Z,25.70
2022-08-11T16:43:39.056Z,25.70
2022-08-11T16:46:32.233Z,25.70
2022-08-11T16:49:02.529Z,25.60
2022-08-11T16:51:31.784Z,25.50
2022-08-11T16:54:05.952Z,25.50
2022-08-11T16:56:38.480Z,25.40
2022-08-11T16:59:17.637Z,25.40
2022-08-11T17:01:53.141Z,25.40
2022-08-11T17:04:46.972Z,25.40
2022-08-11T17:07:40.342Z,25.40
2022-08-11T17:10:51.691Z,25.40
2022-08-11T17:13:27.631Z,25.40
2022-08-11T17:16:08.906Z,25.30
2022-08-11T17:18:44.277Z,25.30
2022-08-11T17:21:19.071Z,25.20
2022-08-11T17:23:52.301Z,25.20
2022-08-11T17:26:26.596Z,25.20
2022-08-11T17:28:58.293Z,25.20
2022-08-11T17:31:46.518Z,25.10
2022-08-11T17:34:32.907Z,25.00
2022-08-11T17:37:01.658Z,24.90
2022-08-11T17:39:32.473Z,24.90
2022-08-11T17:42:16.166Z,24.80
2022-08-11T17:45:02.983Z,24.80
2022-08-11T17:47:50.747Z,24.70
2022-08-11T17:50:19.579Z,24.80
2022-08-11T17:53:06.151Z,24.70
2022-08-11T17:55:54.118Z,24.60
2022-08-11T17:58:41.094Z,24.50
2022-08-11T18:01:10.952Z,24.40
2022-08-11T18:03:41.813Z,24.40
2022-08-11T18:06:33.519Z,24.30
2022-08-11T18:09:23.140Z,24.30
2022-08-11T18:12:12.233Z,24.20
2022-08-11T18:14:59.604Z,24.10
2022-08-11T18:17:45.474Z,24.10
2022-08-11T18:20:32.616Z,24.10
2022-08-11T18:23:22.151Z,24.00
2022-08-11T18:26:28.354Z,24.00
2022-08-11T18:29:16.478Z,23.90
2022-08-11T18:32:07.298Z,23.90
2022-08-11T18:34:58.163Z,23.80
2022-08-11T18:37:48.679Z,23.80
2022-08-11T18:40:37.991Z,23.70
2022-08-11T18:43:27.475Z,23.70
2022-08-11T18:46:18.577Z,23.70
2022-08-11T18:49:11.816Z,23.60
2022-08-11T18:51:58.318Z,23.60
2022-08-11T18:54:49.943Z,23.50
2022-08-11T18:57:49.372Z,23.50
2022-08-11T19:00:41.046Z,23.40
2022-08-11T19:03:30.192Z,23.40
2022-08-11T19:06:38.291Z,23.30
2022-08-11T19:09:26.966Z,23.20
2022-08-11T19:12:14.947Z,23.10
2022-08-11T19:15:03.699Z,23.10
2022-08-11T19:17:51.676Z,23.00
2022-08-11T19:20:41.161Z,23.00
2022-08-11T19:23:30.056Z,22.90
2022-08-11T19:26:17.192Z,22.90
2022-08-11T19:29:05.739Z,22.80
2022-08-11T19:31:52.770Z,22.70
2022-08-11T19:34:41.126Z,22.70
2022-08-11T19:37:28.756Z,22.60
2022-08-11T19:40:19.781Z,22.60
2022-08-11T19:43:11.265Z,22.60
2022-08-11T19:46:11.536Z,22.60
2022-08-11T19:48:57.862Z,22.50
2022-08-11T19:51:43.930Z,22.50
2022-08-11T19:54:29.883Z,22.40
2022-08-11T19:57:16.347Z,22.40
2022-08-11T20:00:02.728Z,22.30
2022-08-11T20:02:50.290Z,22.30
2022-08-11T20:05:36.289Z,22.30
2022-08-11T20:08:23.197Z,22.30
2022-08-11T20:11:09.718Z,22.20
2022-08-11T20:13:56.726Z,22.20
2022-08-11T20:16:43.664Z,22.20
2022-08-11T20:19:55.197Z,22.10
2022-08-11T20:22:37.305Z,22.10
2022-08-11T20:25:24.964Z,22.00
2022-08-11T20:28:12.286Z,22.00
2022-08-11T20:30:58.595Z,21.80
2022-08-11T20:33:44.286Z,21.80
2022-08-11T20:36:32.468Z,21.80
2022-08-11T20:39:19.152Z,21.80
2022-08-11T20:42:06.898Z,21.80
2022-08-11T20:44:53.403Z,21.70
2022-08-11T20:47:56.571Z,21.60
2022-08-11T20:50:46.682Z,21.50
2022-08-11T20:53:39.063Z,21.40
2022-08-11T20:56:28.201Z,21.40
2022-08-11T20:59:17.790Z,21.40
2022-08-11T21:02:09.896Z,21.40
2022-08-11T21:05:00.018Z,21.40
2022-08-11T21:07:56.866Z,21.40
2022-08-11T21:10:51.209Z,21.40
2022-08-11T21:13:40.223Z,21.40
2022-08-11T21:16:27.754Z,21.50
2022-08-11T21:19:54.608Z,21.50
2022-08-11T21:22:28.376Z,21.50
2022-08-11T21:25:15.777Z,21.50
2022-08-11T21:28:04.364Z,21.50
2022-08-11T21:30:51.066Z,21.50
2022-08-11T21:33:42.383Z,21.60
2022-08-11T21:36:29.336Z,21.60
2022-08-11T21:39:15.710Z,21.50
2022-08-11T21:42:01.934Z,21.50
2022-08-11T21:44:49.442Z,21.50
2022-08-11T21:47:42.920Z,21.50
2022-08-11T21:50:30.374Z,21.50
2022-08-11T21:53:16.739Z,21.50
2022-08-11T21:56:03.859Z,21.50
2022-08-11T21:58:51.603Z,21.60
2022-08-11T22:01:39.603Z,21.60
2022-08-11T22:04:26.248Z,21.60
2022-08-11T22:07:12.534Z,21.50
2022-08-11T22:09:58.358Z,21.40
2022-08-11T22:12:45.443Z,21.40
2022-08-11T22:15:31.252Z,21.40
2022-08-11T22:18:20.140Z,21.30
2022-08-11T22:21:05.943Z,21.30
2022-08-11T22:23:53.932Z,21.30
2022-08-11T22:26:41.283Z,21.30
2022-08-11T22:29:49.891Z,21.30
2022-08-11T22:32:34.387Z,21.30
2022-08-11T22:35:23.230Z,21.20
2022-08-11T22:38:09.664Z,21.10
2022-08-11T22:40:55.976Z,21.00
2022-08-11T22:43:42.079Z,21.00
2022-08-11T22:46:28.208Z,21.00
2022-08-11T22:49:14.397Z,21.10
2022-08-11T22:52:03.443Z,21.10
2022-08-11T22:54:49.721Z,21.10
2022-08-11T22:57:36.371Z,21.10
2022-08-11T23:00:24.029Z,21.00
2022-08-11T23:03:37.006Z,20.90
2022-08-11T23:06:24.202Z,20.90
2022-08-11T23:09:12.007Z,20.90
2022-08-11T23:12:07.726Z,20.90
2022-08-11T23:14:57.572Z,20.90
2022-08-11T23:17:44.342Z,21.00
2022-08-11T23:20:39.087Z,21.00
2022-08-11T23:23:29.523Z,20.90
2022-08-11T23:26:17.203Z,20.80
2022-08-11T23:29:05.193Z,20.70
2022-08-11T23:31:53.928Z,20.60
2022-08-11T23:35:03.813Z,20.60
2022-08-11T23:37:48.155Z,20.50
2022-08-11T23:40:34.179Z,20.50
2022-08-11T23:43:22.104Z,20.40
2022-08-11T23:46:07.891Z,20.30
2022-08-11T23:48:54.812Z,20.30
2022-08-11T23:51:41.722Z,20.20
2022-08-11T23:54:28.364Z,20.20
2022-08-11T23:57:14.761Z,20.30
